London Gatwick Airport

EGKK · Inghilterra, Regno Unito

Valido da 28 gennaio 2023 18:00 a 28 gennaio 2023 20:00
Tempo
sabato
18:00
sabato
19:00
Codice
MVFR
MVFR
Tempo metereologico
Copertura con squarci
Copertura con squarci
Vista
10 km+
10 km+
Base nuvolosa
2.500 ft
2.500 ft
Vento
270°
270°
270°
270°
Velocità
3 kt
3 kt
Raffiche di vento
Temp / Sole

Originale

TAF EGLF 281705Z 2818/2820 27003KT 9999 BKN025

TAF Aeroporto di Londra-Gatwick

Aeroporto di Londra-Gatwick è un grande aeroporto in Inghilterra, Regno Unito. L'aeroporto ha 3 piste: 8R/26L, 8L/26R e 8/26. Il codice ICAO del campo è EGKK e il codice IATA è LGW.

Questo rapporto è stato fatto per 28 gennaio 2023 17:05, ora locale il Farnborough Airport. Valido da 28 gennaio 2023 18:00 a 28 gennaio 2023 20:00, ora locale.

Aspettative

  • Tra sabato 18:00 e 20:00

    • Vento: Il vento si sta muovendo dalla direzione 270° a una velocità di 3 kt.
    • Vista: 10 km o più
    • Nuvole: copertura con squarci a 2.500 ft altezza.

Periodo di luce diurna

Oggi il sole sorge alle 07:43 e tramonta alle 16:43. Questo vale per Aeroporto di Londra-Gatwick, il periodo di luce diurna universale può essere diverso. La differenza tra l'ora locale e UTC è +0 ora. Non c'è l'ora legale in questo momento.

Noi e le terze parti seguiamo il tuo comportamento su internet con i cookie. Se continui, riteniamo che tu sia d'accordo con la nostra Politica sui cookie.